DTTK

Kairouan Airport

Kairouan, Tunisia
METAR DTTK 170000Z 23002KT 9999 SCT023 10/05 Q1018
Observed Flight Rules
Dec-17 @ 00:00 UTC (17 minutes ago) Visual Flight Rules
Wind Visibility Clouds
230° at 2 knots 10,000+ meters
  • Scattered at 2,300' AGL
Temperatures Readings
Current 10°C / 50°F
Dewpoint 5°C / 41°F
Humidity 71%
Altimeter 30.06" Hg
Pressure 1018 hPa
Elevation 68
METAR DTTK 170000Z 23002KT 9999 SCT023 10/05 Q1018
Observed Flight Rules
Dec-17 @ 00:00 UTC
(17 minutes ago)
VFR
Wind Visibility
230° at 2 knots 10,000+ meters
Clouds
  • Scattered at 2,300' AGL
Temperature Dewpoint
10°C / 50°F 5°C / 41°F
Humidity Altimeter Pressure
71% 30.06" Hg 1018 hPa